sensor_id;sensor_type;location;lat;lon;timestamp;temperature;humidity
41457;DHT22;27197;51.752;5.220;2023-09-19T00:01:23;22.60;77.80
41457;DHT22;27197;51.752;5.220;2023-09-19T00:03:53;22.60;73.00
41457;DHT22;27197;51.752;5.220;2023-09-19T00:06:29;22.50;72.70
41457;DHT22;27197;51.752;5.220;2023-09-19T00:09:00;22.40;72.50
41457;DHT22;27197;51.752;5.220;2023-09-19T00:11:32;22.30;75.80
41457;DHT22;27197;51.752;5.220;2023-09-19T00:14:01;22.30;77.60
41457;DHT22;27197;51.752;5.220;2023-09-19T00:16:35;22.30;75.90
41457;DHT22;27197;51.752;5.220;2023-09-19T00:19:05;22.40;73.10
41457;DHT22;27197;51.752;5.220;2023-09-19T00:21:37;22.50;73.20
41457;DHT22;27197;51.752;5.220;2023-09-19T00:24:07;22.30;71.80
41457;DHT22;27197;51.752;5.220;2023-09-19T00:26:43;21.90;70.30
41457;DHT22;27197;51.752;5.220;2023-09-19T00:29:12;21.90;74.80
41457;DHT22;27197;51.752;5.220;2023-09-19T00:31:49;22.00;78.30
41457;DHT22;27197;51.752;5.220;2023-09-19T00:34:22;22.00;74.10
41457;DHT22;27197;51.752;5.220;2023-09-19T00:36:51;22.20;76.20
41457;DHT22;27197;51.752;5.220;2023-09-19T00:39:21;22.10;76.60
41457;DHT22;27197;51.752;5.220;2023-09-19T00:41:54;22.10;73.90
41457;DHT22;27197;51.752;5.220;2023-09-19T00:44:22;21.70;74.30
41457;DHT22;27197;51.752;5.220;2023-09-19T00:46:53;21.80;72.70
41457;DHT22;27197;51.752;5.220;2023-09-19T00:49:23;21.80;73.30
41457;DHT22;27197;51.752;5.220;2023-09-19T00:51:53;22.10;72.20
41457;DHT22;27197;51.752;5.220;2023-09-19T00:54:23;22.10;72.30
41457;DHT22;27197;51.752;5.220;2023-09-19T00:56:53;22.10;72.50
41457;DHT22;27197;51.752;5.220;2023-09-19T00:59:24;21.90;74.20
41457;DHT22;27197;51.752;5.220;2023-09-19T01:01:57;21.90;72.30
41457;DHT22;27197;51.752;5.220;2023-09-19T01:04:31;21.90;75.70
41457;DHT22;27197;51.752;5.220;2023-09-19T01:07:01;21.80;74.00
41457;DHT22;27197;51.752;5.220;2023-09-19T01:09:32;21.80;71.60
41457;DHT22;27197;51.752;5.220;2023-09-19T01:12:04;21.80;72.30
41457;DHT22;27197;51.752;5.220;2023-09-19T01:20:17;21.80;73.80
41457;DHT22;27197;51.752;5.220;2023-09-19T01:23:13;21.70;72.20
41457;DHT22;27197;51.752;5.220;2023-09-19T01:31:33;21.60;75.70
41457;DHT22;27197;51.752;5.220;2023-09-19T01:34:04;21.90;72.70
41457;DHT22;27197;51.752;5.220;2023-09-19T01:36:40;21.80;73.70
41457;DHT22;27197;51.752;5.220;2023-09-19T01:39:12;21.80;76.80
41457;DHT22;27197;51.752;5.220;2023-09-19T01:45:02;21.80;74.40
41457;DHT22;27197;51.752;5.220;2023-09-19T01:47:41;21.90;75.00
41457;DHT22;27197;51.752;5.220;2023-09-19T01:50:19;21.90;71.40
41457;DHT22;27197;51.752;5.220;2023-09-19T01:53:07;21.70;68.80
41457;DHT22;27197;51.752;5.220;2023-09-19T01:55:41;21.60;70.70
41457;DHT22;27197;51.752;5.220;2023-09-19T01:58:30;21.40;67.30
41457;DHT22;27197;51.752;5.220;2023-09-19T02:01:00;21.20;68.30
41457;DHT22;27197;51.752;5.220;2023-09-19T02:03:34;21.10;69.10
41457;DHT22;27197;51.752;5.220;2023-09-19T02:06:04;20.70;65.90
41457;DHT22;27197;51.752;5.220;2023-09-19T02:08:36;20.70;73.50
41457;DHT22;27197;51.752;5.220;2023-09-19T02:11:07;20.80;69.70
41457;DHT22;27197;51.752;5.220;2023-09-19T02:13:41;21.00;78.40
41457;DHT22;27197;51.752;5.220;2023-09-19T02:16:12;21.00;73.10
41457;DHT22;27197;51.752;5.220;2023-09-19T02:18:47;20.60;70.90
41457;DHT22;27197;51.752;5.220;2023-09-19T02:21:17;20.80;75.40
41457;DHT22;27197;51.752;5.220;2023-09-19T02:23:48;20.80;72.80
41457;DHT22;27197;51.752;5.220;2023-09-19T02:26:22;21.10;67.90
41457;DHT22;27197;51.752;5.220;2023-09-19T02:28:52;21.30;70.00
41457;DHT22;27197;51.752;5.220;2023-09-19T02:31:22;21.20;69.80
41457;DHT22;27197;51.752;5.220;2023-09-19T02:33:53;21.30;74.10
41457;DHT22;27197;51.752;5.220;2023-09-19T02:36:29;21.20;73.50
41457;DHT22;27197;51.752;5.220;2023-09-19T02:38:57;21.00;73.20
41457;DHT22;27197;51.752;5.220;2023-09-19T02:41:32;21.10;74.60
41457;DHT22;27197;51.752;5.220;2023-09-19T02:44:01;21.20;74.90
41457;DHT22;27197;51.752;5.220;2023-09-19T02:46:32;21.40;77.10
41457;DHT22;27197;51.752;5.220;2023-09-19T02:49:03;21.50;70.90
41457;DHT22;27197;51.752;5.220;2023-09-19T02:51:41;21.40;72.60
41457;DHT22;27197;51.752;5.220;2023-09-19T02:54:11;21.20;72.20
41457;DHT22;27197;51.752;5.220;2023-09-19T02:56:45;21.10;65.90
41457;DHT22;27197;51.752;5.220;2023-09-19T02:59:14;21.30;71.30
41457;DHT22;27197;51.752;5.220;2023-09-19T03:01:47;21.10;71.80
41457;DHT22;27197;51.752;5.220;2023-09-19T03:04:17;21.20;70.20
41457;DHT22;27197;51.752;5.220;2023-09-19T03:06:51;21.20;76.50
41457;DHT22;27197;51.752;5.220;2023-09-19T03:09:20;21.30;64.90
41457;DHT22;27197;51.752;5.220;2023-09-19T03:11:54;21.00;64.70
41457;DHT22;27197;51.752;5.220;2023-09-19T03:14:23;20.90;71.00
41457;DHT22;27197;51.752;5.220;2023-09-19T03:16:55;20.90;64.50
41457;DHT22;27197;51.752;5.220;2023-09-19T03:19:25;20.90;74.70
41457;DHT22;27197;51.752;5.220;2023-09-19T03:21:59;21.00;67.50
41457;DHT22;27197;51.752;5.220;2023-09-19T03:24:28;20.80;70.90
41457;DHT22;27197;51.752;5.220;2023-09-19T03:27:00;20.80;71.20
41457;DHT22;27197;51.752;5.220;2023-09-19T03:29:30;20.90;62.50
41457;DHT22;27197;51.752;5.220;2023-09-19T03:32:02;20.80;73.90
41457;DHT22;27197;51.752;5.220;2023-09-19T03:34:32;21.10;73.00
41457;DHT22;27197;51.752;5.220;2023-09-19T03:37:04;20.80;64.00
41457;DHT22;27197;51.752;5.220;2023-09-19T03:39:32;20.40;62.30
41457;DHT22;27197;51.752;5.220;2023-09-19T03:42:09;20.50;71.30
41457;DHT22;27197;51.752;5.220;2023-09-19T03:44:39;20.70;73.40
41457;DHT22;27197;51.752;5.220;2023-09-19T03:47:09;20.70;69.30
41457;DHT22;27197;51.752;5.220;2023-09-19T03:49:43;20.80;75.40
41457;DHT22;27197;51.752;5.220;2023-09-19T03:52:12;20.90;73.10
41457;DHT22;27197;51.752;5.220;2023-09-19T03:54:45;20.80;70.40
41457;DHT22;27197;51.752;5.220;2023-09-19T03:57:14;20.80;65.20
41457;DHT22;27197;51.752;5.220;2023-09-19T03:59:46;20.50;70.50
41457;DHT22;27197;51.752;5.220;2023-09-19T04:02:20;20.50;68.60
41457;DHT22;27197;51.752;5.220;2023-09-19T04:05:00;20.60;70.40
41457;DHT22;27197;51.752;5.220;2023-09-19T04:07:34;20.80;75.80
41457;DHT22;27197;51.752;5.220;2023-09-19T04:10:02;20.90;75.80
41457;DHT22;27197;51.752;5.220;2023-09-19T04:12:37;20.70;67.40
41457;DHT22;27197;51.752;5.220;2023-09-19T04:15:07;20.50;73.90
41457;DHT22;27197;51.752;5.220;2023-09-19T04:17:41;20.60;76.00
41457;DHT22;27197;51.752;5.220;2023-09-19T04:20:12;20.70;77.10
41457;DHT22;27197;51.752;5.220;2023-09-19T04:22:45;20.50;66.70
41457;DHT22;27197;51.752;5.220;2023-09-19T04:25:13;20.80;76.70
41457;DHT22;27197;51.752;5.220;2023-09-19T04:27:46;20.70;69.80
41457;DHT22;27197;51.752;5.220;2023-09-19T04:30:18;20.70;68.70
41457;DHT22;27197;51.752;5.220;2023-09-19T04:32:48;20.50;66.80
41457;DHT22;27197;51.752;5.220;2023-09-19T04:35:17;20.60;76.80
41457;DHT22;27197;51.752;5.220;2023-09-19T04:37:48;20.70;74.10
41457;DHT22;27197;51.752;5.220;2023-09-19T04:40:21;20.90;76.70
41457;DHT22;27197;51.752;5.220;2023-09-19T04:42:55;21.00;69.10
41457;DHT22;27197;51.752;5.220;2023-09-19T04:45:31;20.80;70.10
41457;DHT22;27197;51.752;5.220;2023-09-19T04:48:00;20.70;65.90
41457;DHT22;27197;51.752;5.220;2023-09-19T04:50:32;20.60;69.20
41457;DHT22;27197;51.752;5.220;2023-09-19T04:53:03;20.60;72.10
41457;DHT22;27197;51.752;5.220;2023-09-19T04:55:34;20.80;68.00
41457;DHT22;27197;51.752;5.220;2023-09-19T04:58:04;20.80;71.50
41457;DHT22;27197;51.752;5.220;2023-09-19T05:00:32;20.50;65.80
41457;DHT22;27197;51.752;5.220;2023-09-19T05:03:01;20.50;71.30
41457;DHT22;27197;51.752;5.220;2023-09-19T05:05:31;20.50;75.50
41457;DHT22;27197;51.752;5.220;2023-09-19T05:08:02;20.60;67.70
41457;DHT22;27197;51.752;5.220;2023-09-19T05:10:36;20.60;69.00
41457;DHT22;27197;51.752;5.220;2023-09-19T05:13:13;20.70;77.00
41457;DHT22;27197;51.752;5.220;2023-09-19T05:15:41;20.60;67.60
41457;DHT22;27197;51.752;5.220;2023-09-19T05:18:12;20.50;69.30
41457;DHT22;27197;51.752;5.220;2023-09-19T05:20:42;20.70;71.50
41457;DHT22;27197;51.752;5.220;2023-09-19T05:23:12;20.80;74.60
41457;DHT22;27197;51.752;5.220;2023-09-19T05:25:42;20.50;65.90
41457;DHT22;27197;51.752;5.220;2023-09-19T05:28:11;20.40;65.90
41457;DHT22;27197;51.752;5.220;2023-09-19T05:30:46;20.30;72.20
41457;DHT22;27197;51.752;5.220;2023-09-19T05:33:14;20.40;67.50
41457;DHT22;27197;51.752;5.220;2023-09-19T05:35:50;20.40;73.20
41457;DHT22;27197;51.752;5.220;2023-09-19T05:38:19;20.60;75.20
41457;DHT22;27197;51.752;5.220;2023-09-19T05:40:53;20.60;71.10
41457;DHT22;27197;51.752;5.220;2023-09-19T05:43:22;20.50;66.40
41457;DHT22;27197;51.752;5.220;2023-09-19T05:45:53;20.30;69.20
41457;DHT22;27197;51.752;5.220;2023-09-19T05:48:24;20.20;70.80
41457;DHT22;27197;51.752;5.220;2023-09-19T05:50:57;20.00;73.90
41457;DHT22;27197;51.752;5.220;2023-09-19T05:53:27;20.20;75.20
41457;DHT22;27197;51.752;5.220;2023-09-19T05:55:59;20.10;73.30
41457;DHT22;27197;51.752;5.220;2023-09-19T05:58:27;20.30;79.00
41457;DHT22;27197;51.752;5.220;2023-09-19T06:00:55;20.50;77.90
41457;DHT22;27197;51.752;5.220;2023-09-19T06:03:24;20.60;71.30
41457;DHT22;27197;51.752;5.220;2023-09-19T06:05:59;20.50;73.60
41457;DHT22;27197;51.752;5.220;2023-09-19T06:08:28;20.20;72.30
41457;DHT22;27197;51.752;5.220;2023-09-19T06:10:58;20.30;70.40
41457;DHT22;27197;51.752;5.220;2023-09-19T06:13:33;20.00;68.70
41457;DHT22;27197;51.752;5.220;2023-09-19T06:16:08;20.00;69.80
41457;DHT22;27197;51.752;5.220;2023-09-19T06:18:36;20.20;72.60
41457;DHT22;27197;51.752;5.220;2023-09-19T06:21:27;20.30;78.60
41457;DHT22;27197;51.752;5.220;2023-09-19T06:24:01;20.50;71.80
41457;DHT22;27197;51.752;5.220;2023-09-19T06:26:29;20.40;71.00
41457;DHT22;27197;51.752;5.220;2023-09-19T06:29:03;20.20;68.20
41457;DHT22;27197;51.752;5.220;2023-09-19T06:31:31;20.00;70.00
41457;DHT22;27197;51.752;5.220;2023-09-19T06:34:02;19.90;70.60
41457;DHT22;27197;51.752;5.220;2023-09-19T06:36:32;20.10;74.10
41457;DHT22;27197;51.752;5.220;2023-09-19T06:39:05;20.20;74.30
41457;DHT22;27197;51.752;5.220;2023-09-19T06:41:36;20.20;71.00
41457;DHT22;27197;51.752;5.220;2023-09-19T06:44:11;20.30;74.70
41457;DHT22;27197;51.752;5.220;2023-09-19T06:46:41;20.60;79.10
41457;DHT22;27197;51.752;5.220;2023-09-19T06:49:14;20.70;79.40
41457;DHT22;27197;51.752;5.220;2023-09-19T06:51:44;20.70;76.00
41457;DHT22;27197;51.752;5.220;2023-09-19T06:54:18;20.80;72.60
41457;DHT22;27197;51.752;5.220;2023-09-19T06:56:48;20.50;70.80
41457;DHT22;27197;51.752;5.220;2023-09-19T06:59:16;20.30;69.90
41457;DHT22;27197;51.752;5.220;2023-09-19T07:01:46;20.30;73.70
41457;DHT22;27197;51.752;5.220;2023-09-19T07:04:20;20.40;70.40
41457;DHT22;27197;51.752;5.220;2023-09-19T07:06:55;20.70;70.80
41457;DHT22;27197;51.752;5.220;2023-09-19T07:09:24;20.60;72.80
41457;DHT22;27197;51.752;5.220;2023-09-19T07:11:55;20.80;74.90
41457;DHT22;27197;51.752;5.220;2023-09-19T07:14:30;20.70;71.60
41457;DHT22;27197;51.752;5.220;2023-09-19T07:16:59;20.70;75.80
41457;DHT22;27197;51.752;5.220;2023-09-19T07:19:32;20.80;72.10
41457;DHT22;27197;51.752;5.220;2023-09-19T07:22:01;20.70;73.00
41457;DHT22;27197;51.752;5.220;2023-09-19T07:24:31;20.70;69.70
41457;DHT22;27197;51.752;5.220;2023-09-19T07:27:01;20.60;71.00
41457;DHT22;27197;51.752;5.220;2023-09-19T07:29:32;20.70;73.50
41457;DHT22;27197;51.752;5.220;2023-09-19T07:32:02;20.80;70.50
41457;DHT22;27197;51.752;5.220;2023-09-19T07:34:32;20.80;72.90
41457;DHT22;27197;51.752;5.220;2023-09-19T07:37:03;20.90;71.30
41457;DHT22;27197;51.752;5.220;2023-09-19T07:39:33;20.90;72.30
41457;DHT22;27197;51.752;5.220;2023-09-19T07:42:05;21.10;70.00
41457;DHT22;27197;51.752;5.220;2023-09-19T07:44:36;21.10;69.70
41457;DHT22;27197;51.752;5.220;2023-09-19T07:47:08;21.20;70.00
41457;DHT22;27197;51.752;5.220;2023-09-19T07:49:38;21.20;73.40
41457;DHT22;27197;51.752;5.220;2023-09-19T07:52:10;21.20;70.50
41457;DHT22;27197;51.752;5.220;2023-09-19T07:54:39;21.00;72.40
41457;DHT22;27197;51.752;5.220;2023-09-19T07:57:12;21.00;71.20
41457;DHT22;27197;51.752;5.220;2023-09-19T07:59:42;21.00;71.60
41457;DHT22;27197;51.752;5.220;2023-09-19T08:02:12;20.90;68.50
41457;DHT22;27197;51.752;5.220;2023-09-19T08:04:47;20.80;71.90
41457;DHT22;27197;51.752;5.220;2023-09-19T08:07:17;21.10;73.60
41457;DHT22;27197;51.752;5.220;2023-09-19T08:09:47;21.10;71.50
41457;DHT22;27197;51.752;5.220;2023-09-19T08:12:22;21.20;72.30
41457;DHT22;27197;51.752;5.220;2023-09-19T08:14:51;21.30;71.70
41457;DHT22;27197;51.752;5.220;2023-09-19T08:17:21;21.50;71.80
41457;DHT22;27197;51.752;5.220;2023-09-19T08:19:50;21.30;71.30
41457;DHT22;27197;51.752;5.220;2023-09-19T08:22:21;21.30;71.80
41457;DHT22;27197;51.752;5.220;2023-09-19T08:24:51;21.20;71.90
41457;DHT22;27197;51.752;5.220;2023-09-19T08:27:25;21.20;70.60
41457;DHT22;27197;51.752;5.220;2023-09-19T08:29:57;21.30;70.50
41457;DHT22;27197;51.752;5.220;2023-09-19T08:32:30;21.30;69.10
41457;DHT22;27197;51.752;5.220;2023-09-19T08:35:03;21.30;70.10
41457;DHT22;27197;51.752;5.220;2023-09-19T08:37:32;21.20;72.50
41457;DHT22;27197;51.752;5.220;2023-09-19T08:40:03;21.30;69.60
41457;DHT22;27197;51.752;5.220;2023-09-19T08:42:50;21.40;68.60
41457;DHT22;27197;51.752;5.220;2023-09-19T08:45:24;21.30;69.90
41457;DHT22;27197;51.752;5.220;2023-09-19T08:48:06;21.30;71.20
41457;DHT22;27197;51.752;5.220;2023-09-19T08:50:33;21.30;67.70
41457;DHT22;27197;51.752;5.220;2023-09-19T08:53:10;21.10;67.10
41457;DHT22;27197;51.752;5.220;2023-09-19T08:55:38;21.00;68.50
41457;DHT22;27197;51.752;5.220;2023-09-19T08:58:10;21.10;70.10
41457;DHT22;27197;51.752;5.220;2023-09-19T09:00:44;21.20;69.10
41457;DHT22;27197;51.752;5.220;2023-09-19T09:03:13;21.20;68.90
41457;DHT22;27197;51.752;5.220;2023-09-19T09:05:46;21.30;69.80
41457;DHT22;27197;51.752;5.220;2023-09-19T09:08:20;21.30;69.10
41457;DHT22;27197;51.752;5.220;2023-09-19T09:10:51;21.30;69.30
41457;DHT22;27197;51.752;5.220;2023-09-19T09:13:26;21.40;69.30
41457;DHT22;27197;51.752;5.220;2023-09-19T09:15:59;21.40;67.40
41457;DHT22;27197;51.752;5.220;2023-09-19T09:18:30;21.20;69.30
41457;DHT22;27197;51.752;5.220;2023-09-19T09:21:02;21.30;68.00
41457;DHT22;27197;51.752;5.220;2023-09-19T09:23:36;21.30;67.70
41457;DHT22;27197;51.752;5.220;2023-09-19T09:26:08;21.40;68.20
41457;DHT22;27197;51.752;5.220;2023-09-19T09:28:45;21.40;68.50
41457;DHT22;27197;51.752;5.220;2023-09-19T09:31:24;21.50;66.90
41457;DHT22;27197;51.752;5.220;2023-09-19T09:33:56;21.50;68.40
41457;DHT22;27197;51.752;5.220;2023-09-19T09:36:38;21.60;68.40
41457;DHT22;27197;51.752;5.220;2023-09-19T09:39:09;21.60;66.80
41457;DHT22;27197;51.752;5.220;2023-09-19T09:41:49;21.60;66.30
41457;DHT22;27197;51.752;5.220;2023-09-19T09:44:25;21.60;66.30
41457;DHT22;27197;51.752;5.220;2023-09-19T09:46:59;21.60;67.90
41457;DHT22;27197;51.752;5.220;2023-09-19T09:49:48;21.60;67.30
41457;DHT22;27197;51.752;5.220;2023-09-19T09:52:17;21.70;65.50
41457;DHT22;27197;51.752;5.220;2023-09-19T09:55:05;21.60;65.30
41457;DHT22;27197;51.752;5.220;2023-09-19T09:57:34;21.70;65.30
41457;DHT22;27197;51.752;5.220;2023-09-19T10:00:08;21.70;67.70
41457;DHT22;27197;51.752;5.220;2023-09-19T10:02:46;21.80;65.40
41457;DHT22;27197;51.752;5.220;2023-09-19T10:05:19;21.70;66.30
41457;DHT22;27197;51.752;5.220;2023-09-19T10:07:51;21.80;66.40
41457;DHT22;27197;51.752;5.220;2023-09-19T10:10:39;21.70;65.30
41457;DHT22;27197;51.752;5.220;2023-09-19T10:13:14;21.80;67.20
41457;DHT22;27197;51.752;5.220;2023-09-19T10:15:51;21.90;66.50
41457;DHT22;27197;51.752;5.220;2023-09-19T10:18:25;21.90;65.40
41457;DHT22;27197;51.752;5.220;2023-09-19T10:20:58;22.00;66.30
41457;DHT22;27197;51.752;5.220;2023-09-19T10:23:34;22.00;66.50
41457;DHT22;27197;51.752;5.220;2023-09-19T10:26:05;22.00;65.80
41457;DHT22;27197;51.752;5.220;2023-09-19T10:28:42;22.10;65.40
41457;DHT22;27197;51.752;5.220;2023-09-19T10:31:17;22.10;65.90
41457;DHT22;27197;51.752;5.220;2023-09-19T10:33:49;22.10;64.90
41457;DHT22;27197;51.752;5.220;2023-09-19T10:36:24;22.10;67.00
41457;DHT22;27197;51.752;5.220;2023-09-19T10:38:55;22.10;65.30
41457;DHT22;27197;51.752;5.220;2023-09-19T10:41:28;22.10;64.20
41457;DHT22;27197;51.752;5.220;2023-09-19T10:44:03;22.10;65.30
41457;DHT22;27197;51.752;5.220;2023-09-19T10:46:35;22.20;67.10
41457;DHT22;27197;51.752;5.220;2023-09-19T10:49:05;22.20;65.40
41457;DHT22;27197;51.752;5.220;2023-09-19T10:51:39;22.30;64.20
41457;DHT22;27197;51.752;5.220;2023-09-19T10:54:16;22.30;64.50
41457;DHT22;27197;51.752;5.220;2023-09-19T10:56:51;22.30;64.60
41457;DHT22;27197;51.752;5.220;2023-09-19T10:59:22;22.20;64.50
41457;DHT22;27197;51.752;5.220;2023-09-19T11:01:55;22.20;63.60
41457;DHT22;27197;51.752;5.220;2023-09-19T11:04:32;22.20;65.00
41457;DHT22;27197;51.752;5.220;2023-09-19T11:07:10;22.20;63.80
41457;DHT22;27197;51.752;5.220;2023-09-19T11:09:52;22.20;63.30
41457;DHT22;27197;51.752;5.220;2023-09-19T11:15:08;22.30;62.50
41457;DHT22;27197;51.752;5.220;2023-09-19T11:17:41;22.30;62.90
41457;DHT22;27197;51.752;5.220;2023-09-19T11:20:18;22.30;62.80
41457;DHT22;27197;51.752;5.220;2023-09-19T11:25:42;22.50;62.10
41457;DHT22;27197;51.752;5.220;2023-09-19T11:31:00;22.40;63.10
41457;DHT22;27197;51.752;5.220;2023-09-19T11:33:34;22.50;63.00
41457;DHT22;27197;51.752;5.220;2023-09-19T11:36:11;22.50;61.80
41457;DHT22;27197;51.752;5.220;2023-09-19T11:41:37;22.50;62.00
41457;DHT22;27197;51.752;5.220;2023-09-19T11:46:55;22.60;62.40
41457;DHT22;27197;51.752;5.220;2023-09-19T11:49:30;22.60;62.80
41457;DHT22;27197;51.752;5.220;2023-09-19T11:52:02;22.70;62.50
41457;DHT22;27197;51.752;5.220;2023-09-19T11:54:36;22.60;61.20
41457;DHT22;27197;51.752;5.220;2023-09-19T11:57:11;22.70;62.00
41457;DHT22;27197;51.752;5.220;2023-09-19T11:59:40;22.70;62.80
41457;DHT22;27197;51.752;5.220;2023-09-19T12:04:46;22.70;63.00
41457;DHT22;27197;51.752;5.220;2023-09-19T12:07:17;22.70;62.60
41457;DHT22;27197;51.752;5.220;2023-09-19T12:09:51;22.70;62.80
41457;DHT22;27197;51.752;5.220;2023-09-19T12:12:26;22.70;63.50
41457;DHT22;27197;51.752;5.220;2023-09-19T12:15:00;22.70;64.10
41457;DHT22;27197;51.752;5.220;2023-09-19T12:17:39;22.70;62.70
41457;DHT22;27197;51.752;5.220;2023-09-19T12:22:57;22.60;64.10
41457;DHT22;27197;51.752;5.220;2023-09-19T12:25:30;22.60;61.40
41457;DHT22;27197;51.752;5.220;2023-09-19T12:28:03;22.60;63.60
41457;DHT22;27197;51.752;5.220;2023-09-19T12:30:32;22.50;60.80
41457;DHT22;27197;51.752;5.220;2023-09-19T12:33:04;22.50;62.90
41457;DHT22;27197;51.752;5.220;2023-09-19T12:35:35;22.50;63.40
41457;DHT22;27197;51.752;5.220;2023-09-19T12:38:05;22.50;62.90
41457;DHT22;27197;51.752;5.220;2023-09-19T12:40:40;22.60;63.10
41457;DHT22;27197;51.752;5.220;2023-09-19T12:43:10;22.60;62.20
41457;DHT22;27197;51.752;5.220;2023-09-19T12:45:44;22.50;61.80
41457;DHT22;27197;51.752;5.220;2023-09-19T12:48:23;22.50;62.10
41457;DHT22;27197;51.752;5.220;2023-09-19T12:51:09;22.40;61.90
41457;DHT22;27197;51.752;5.220;2023-09-19T12:53:45;22.40;61.70
41457;DHT22;27197;51.752;5.220;2023-09-19T13:01:52;22.40;64.40
41457;DHT22;27197;51.752;5.220;2023-09-19T13:04:22;22.50;63.20
41457;DHT22;27197;51.752;5.220;2023-09-19T13:06:55;22.40;63.90
41457;DHT22;27197;51.752;5.220;2023-09-19T13:09:28;22.50;63.70
41457;DHT22;27197;51.752;5.220;2023-09-19T13:11:59;22.40;62.90
41457;DHT22;27197;51.752;5.220;2023-09-19T13:14:29;22.40;62.30
41457;DHT22;27197;51.752;5.220;2023-09-19T13:17:09;22.30;62.00
41457;DHT22;27197;51.752;5.220;2023-09-19T13:19:46;22.40;64.10
41457;DHT22;27197;51.752;5.220;2023-09-19T13:25:16;22.40;62.60
41457;DHT22;27197;51.752;5.220;2023-09-19T13:27:54;22.30;63.60
41457;DHT22;27197;51.752;5.220;2023-09-19T13:30:27;22.30;63.40
41457;DHT22;27197;51.752;5.220;2023-09-19T13:33:11;22.40;63.20
41457;DHT22;27197;51.752;5.220;2023-09-19T13:35:43;22.40;63.40
41457;DHT22;27197;51.752;5.220;2023-09-19T13:38:15;22.40;64.30
41457;DHT22;27197;51.752;5.220;2023-09-19T13:40:48;22.40;64.10
41457;DHT22;27197;51.752;5.220;2023-09-19T13:43:22;22.40;63.90
41457;DHT22;27197;51.752;5.220;2023-09-19T13:45:51;22.40;64.20
41457;DHT22;27197;51.752;5.220;2023-09-19T13:48:18;22.50;64.30
41457;DHT22;27197;51.752;5.220;2023-09-19T13:50:52;22.40;64.10
41457;DHT22;27197;51.752;5.220;2023-09-19T13:53:23;22.40;62.90
41457;DHT22;27197;51.752;5.220;2023-09-19T13:55:53;22.30;62.90
41457;DHT22;27197;51.752;5.220;2023-09-19T13:58:25;22.40;64.20
41457;DHT22;27197;51.752;5.220;2023-09-19T14:00:56;22.40;62.90
41457;DHT22;27197;51.752;5.220;2023-09-19T14:03:27;22.40;62.30
41457;DHT22;27197;51.752;5.220;2023-09-19T14:05:57;22.40;63.90
41457;DHT22;27197;51.752;5.220;2023-09-19T14:08:25;22.40;62.90
41457;DHT22;27197;51.752;5.220;2023-09-19T14:10:52;22.40;63.10
41457;DHT22;27197;51.752;5.220;2023-09-19T14:13:20;22.40;63.20
41457;DHT22;27197;51.752;5.220;2023-09-19T14:15:47;22.40;63.90
41457;DHT22;27197;51.752;5.220;2023-09-19T14:18:19;22.50;64.70
41457;DHT22;27197;51.752;5.220;2023-09-19T14:20:48;22.40;65.50
41457;DHT22;27197;51.752;5.220;2023-09-19T14:23:19;22.50;64.80
41457;DHT22;27197;51.752;5.220;2023-09-19T14:25:53;22.50;64.10
41457;DHT22;27197;51.752;5.220;2023-09-19T14:28:20;22.40;62.90
41457;DHT22;27197;51.752;5.220;2023-09-19T14:30:52;22.40;63.60
41457;DHT22;27197;51.752;5.220;2023-09-19T14:33:24;22.40;64.30
41457;DHT22;27197;51.752;5.220;2023-09-19T14:35:52;22.30;62.30
41457;DHT22;27197;51.752;5.220;2023-09-19T14:38:19;22.30;63.30
41457;DHT22;27197;51.752;5.220;2023-09-19T14:41:06;22.30;63.50
41457;DHT22;27197;51.752;5.220;2023-09-19T14:43:34;22.20;62.90
41457;DHT22;27197;51.752;5.220;2023-09-19T14:46:04;22.30;63.20
41457;DHT22;27197;51.752;5.220;2023-09-19T14:48:34;22.30;63.50
41457;DHT22;27197;51.752;5.220;2023-09-19T14:51:05;22.30;63.10
41457;DHT22;27197;51.752;5.220;2023-09-19T14:53:36;22.30;62.80
41457;DHT22;27197;51.752;5.220;2023-09-19T14:56:10;22.30;63.00
41457;DHT22;27197;51.752;5.220;2023-09-19T14:58:38;22.30;63.00
41457;DHT22;27197;51.752;5.220;2023-09-19T15:01:13;22.20;63.00
41457;DHT22;27197;51.752;5.220;2023-09-19T15:03:47;22.20;63.20
41457;DHT22;27197;51.752;5.220;2023-09-19T15:06:17;22.20;63.20
41457;DHT22;27197;51.752;5.220;2023-09-19T15:08:47;22.30;64.30
41457;DHT22;27197;51.752;5.220;2023-09-19T15:11:19;22.30;63.70
41457;DHT22;27197;51.752;5.220;2023-09-19T15:13:51;22.30;63.30
41457;DHT22;27197;51.752;5.220;2023-09-19T15:16:20;22.30;63.60
41457;DHT22;27197;51.752;5.220;2023-09-19T15:18:48;22.20;63.20
41457;DHT22;27197;51.752;5.220;2023-09-19T15:21:19;22.20;63.20
41457;DHT22;27197;51.752;5.220;2023-09-19T15:23:49;22.20;63.50
41457;DHT22;27197;51.752;5.220;2023-09-19T15:26:18;22.20;64.40
41457;DHT22;27197;51.752;5.220;2023-09-19T15:28:50;22.20;63.10
41457;DHT22;27197;51.752;5.220;2023-09-19T15:31:20;22.20;63.10
41457;DHT22;27197;51.752;5.220;2023-09-19T15:33:51;22.10;63.20
41457;DHT22;27197;51.752;5.220;2023-09-19T15:36:21;22.10;64.40
41457;DHT22;27197;51.752;5.220;2023-09-19T15:39:04;22.10;63.70
41457;DHT22;27197;51.752;5.220;2023-09-19T15:41:41;22.10;63.90
41457;DHT22;27197;51.752;5.220;2023-09-19T15:44:15;22.10;65.30
41457;DHT22;27197;51.752;5.220;2023-09-19T15:46:47;22.20;64.10
41457;DHT22;27197;51.752;5.220;2023-09-19T15:49:22;22.20;64.50
41457;DHT22;27197;51.752;5.220;2023-09-19T15:52:10;22.10;64.10
41457;DHT22;27197;51.752;5.220;2023-09-19T15:54:38;22.10;63.40
41457;DHT22;27197;51.752;5.220;2023-09-19T15:57:11;22.10;65.40
41457;DHT22;27197;51.752;5.220;2023-09-19T15:59:43;22.10;65.70
41457;DHT22;27197;51.752;5.220;2023-09-19T16:02:13;22.10;64.30
41457;DHT22;27197;51.752;5.220;2023-09-19T16:04:44;22.20;63.60
41457;DHT22;27197;51.752;5.220;2023-09-19T16:07:18;22.10;63.90
41457;DHT22;27197;51.752;5.220;2023-09-19T16:09:48;22.10;63.50
41457;DHT22;27197;51.752;5.220;2023-09-19T16:12:18;22.10;64.50
41457;DHT22;27197;51.752;5.220;2023-09-19T16:14:47;22.10;64.40
41457;DHT22;27197;51.752;5.220;2023-09-19T16:17:15;22.10;64.20
41457;DHT22;27197;51.752;5.220;2023-09-19T16:19:45;22.10;63.80
41457;DHT22;27197;51.752;5.220;2023-09-19T16:22:17;22.00;65.30
41457;DHT22;27197;51.752;5.220;2023-09-19T16:24:51;22.10;67.20
41457;DHT22;27197;51.752;5.220;2023-09-19T16:27:21;21.90;65.20
41457;DHT22;27197;51.752;5.220;2023-09-19T16:29:54;22.10;66.70
41457;DHT22;27197;51.752;5.220;2023-09-19T16:32:23;22.10;67.50
41457;DHT22;27197;51.752;5.220;2023-09-19T16:34:57;22.10;65.90
41457;DHT22;27197;51.752;5.220;2023-09-19T16:37:26;22.10;65.10
41457;DHT22;27197;51.752;5.220;2023-09-19T16:39:54;22.10;66.20
41457;DHT22;27197;51.752;5.220;2023-09-19T16:42:21;22.10;65.60
41457;DHT22;27197;51.752;5.220;2023-09-19T16:44:50;22.00;65.90